Latest Coastal Weather Observations for Cape Leeuwin

IDW60701

Issued at 9:03 pm WST Thursday 19 January 2017 (issued every 10 minutes, with the page automatically refreshed every 10 minutes)

About coastal observations | Map of coastal stations | Coastal observations for WA | Marine services | Other Formats
Station Details ID: 009518 Name: CAPE LEEUWIN Lat: -34.37 Lon: 115.14 Height: 13.0 m
Data from the previous 72 hours. | See also: Recent months at Cape Leeuwin
Date/Time
WST
Temp
°C
Wind Pressure Rain since
9am
mm
Weather Cloud Vis
km
Sea
Height
m
Swell
Dir  Spd
kts
Gust
kts
hPa Trend Height
m
Period
s
Dir
19/09:00pm 17.3 S 12 14 1014.5 - 0.0 - - - - - - -
19/08:30pm 17.4 S 12 16 1014.2 - 0.2 - - - - - - -
19/08:00pm 17.2 S 12 16 1013.9 - 0.2 - - - - - - -
19/07:30pm 17.4 S 10 14 1013.8 - 0.2 - - - - - - -
19/07:00pm 17.6 S 11 14 1013.8 - 0.2 - - - - - - -
19/06:30pm 17.7 S 12 16 1013.5 - 0.2 - - - - - - -
19/06:00pm 18.0 S 11 16 1013.3 - 0.2 - - - - - - -
19/05:30pm 18.7 S 12 15 1013.0 - 0.2 - - - - - - -
19/05:00pm 19.9 SSW 12 16 1013.0 - 0.2 - - - - - - -
19/04:30pm 20.9 SSW 14 17 1013.1 - 0.2 - - - - - - -
19/04:00pm 19.6 SSW 14 17 1013.1 - 0.2 - - - - - - -
19/03:30pm 20.8 SSW 13 17 1013.2 - 0.2 - - - - - - -
19/03:00pm 20.8 SSW 14 18 1013.4 - 0.2 - - - - - - -
19/02:30pm 21.0 SSW 15 20 1013.3 - 0.2 - - - - - - -
19/02:00pm 21.7 SSW 14 19 1013.3 - 0.2 - - - - - - -
19/01:30pm 21.8 SSW 15 19 1013.4 - 0.2 - - - - - - -
19/01:00pm 21.4 S 13 17 1013.6 - 0.2 - - - - - - -
19/12:30pm 21.0 SSW 15 18 1013.7 - 0.2 - - - - - - -
19/12:00pm 19.9 SSW 14 19 1014.1 - 0.2 - - - - - - -
19/11:30am 20.8 SSW 15 19 1014.1 - 0.2 - - - - - - -
19/11:00am 21.2 SSW 15 19 1014.1 - 0.2 - - - - - - -
19/10:30am 20.4 SSW 15 19 1013.9 - 0.2 - - - - - - -
19/10:00am 20.6 SSW 13 18 1013.8 - 0.0 - - - - - - -
19/09:30am 18.5 SSW 16 22 1013.8 - 0.0 - - - - - - -
19/09:00am 18.4 SSW 16 21 1013.7 - 0.2 - - - - - - -
19/08:30am 18.8 SSW 18 23 1013.6 - 0.2 - - - - - - -
19/08:00am 17.7 SW 20 24 1013.3 - 0.2 - - - - - - -
19/07:30am 17.4 SW 20 25 1013.0 - 0.2 - - - - - - -
19/07:00am 17.3 SW 20 25 1012.4 - 0.2 - - - - - - -
19/06:30am 16.7 SW 19 23 1011.9 - 0.2 - - - - - - -
19/06:00am 16.4 SW 21 26 1011.6 - 0.2 - - - - - - -
19/05:30am 16.1 SW 20 26 1011.3 - 0.2 - - - - - - -
19/05:00am 16.2 SW 22 28 1011.0 - 0.2 - - - - - - -
19/04:30am 16.1 SW 23 28 1010.6 - 0.2 - - - - - - -
19/04:00am 16.6 SW 26 31 1010.1 - 0.2 - - - - - - -
19/03:30am 17.0 SW 23 27 1009.8 - 0.2 - - - - - - -
19/03:00am 16.9 WSW 20 25 1009.9 - 0.2 Recent precip. - - - - - -
19/02:30am 17.6 WSW 15 19 1009.8 - 0.0 - - - - - - -
19/02:00am 17.7 WSW 15 18 1010.0 - 0.0 - - - - - - -
19/01:30am 17.6 WSW 17 21 1010.1 - 0.0 - - - - - - -
19/01:00am 17.5 WSW 18 22 1010.2 - 0.0 - - - - - - -
19/12:30am 17.6 WSW 18 21 1010.3 - 0.0 - - - - - - -
19/12:00am 17.7 WSW 18 22 1010.5 - 0.0 - - - - - - -
 
Date/Time
WST
Temp
°C
Wind Pressure Rain since
9am
mm
Weather Cloud Vis
km
Sea
Height
m
Swell
Dir  Spd
kts
Gust
kts
hPa Trend Height
m
Period
s
Dir
18/11:30pm 17.6 SW 17 21 1010.6 - 0.0 - - - - - - -
18/11:00pm 17.6 WSW 18 21 1010.6 - 0.0 - - - - - - -
18/10:30pm 18.1 WSW 21 24 1010.9 - 0.0 - - - - - - -
18/10:00pm 18.1 WSW 20 24 1011.0 - 0.0 - - - - - - -
18/09:30pm 18.3 WSW 21 25 1010.7 - 0.0 - - - - - - -
18/09:00pm 18.5 SW 16 20 1010.3 - 0.0 - - - - - - -
18/08:30pm 18.7 SW 15 19 1010.0 - 0.0 - - - - - - -
18/08:00pm 18.5 SW 16 19 1010.0 - 0.0 - - - - - - -
18/07:30pm 18.6 SW 17 20 1009.9 - 0.0 - - - - - - -
18/07:00pm 19.2 SW 17 20 1009.7 - 0.0 - - - - - - -
18/06:30pm 19.5 WSW 16 20 1009.5 - 0.0 - - - - - - -
18/06:00pm 20.6 WSW 14 17 1009.2 - 0.0 - - - - - - -
18/05:30pm 21.0 WSW 12 15 1009.1 - 0.0 - - - - - - -
18/05:00pm 21.1 WSW 13 16 1009.1 - 0.0 - - - - - - -
18/04:30pm 21.7 WSW 14 16 1009.2 - 0.0 - - - - - - -
18/04:00pm 22.0 WSW 15 18 1009.3 - 0.0 - - - - - - -
18/03:30pm 22.0 WSW 15 18 1009.5 - 0.0 - - - - - - -
18/03:00pm 22.0 W 11 13 1009.7 - 0.0 - - - - - - -
18/02:30pm 21.5 WSW 11 13 1009.7 - 0.0 - - - - - - -
18/02:00pm 21.2 WSW 11 13 1010.1 - 0.0 - - - - - - -
18/01:30pm 21.5 W 9 11 1010.1 - 0.0 - - - - - - -
18/01:00pm 21.0 W 7 8 1010.3 - 0.0 - - - - - - -
18/12:30pm 21.4 WSW 7 10 1010.9 - 0.0 - - - - - - -
18/12:00pm 20.5 WSW 7 10 1011.3 - 0.0 - - - - - - -
18/11:30am 20.5 WSW 9 11 1011.8 - 0.0 - - - - - - -
18/11:00am 20.6 W 10 12 1012.3 - 0.0 - - - - - - -
18/10:30am 19.7 W 10 13 1012.7 - 0.0 - - - - - - -
18/10:00am 19.2 W 10 13 1012.9 - 0.0 - - - - - - -
18/09:30am 19.5 SW 7 8 1012.6 - 0.0 - - - - - - -
18/09:00am 19.0 SSW 5 7 1013.0 - 0.0 - - - - - - -
18/08:30am 18.7 ESE 5 7 1013.3 - 0.0 - - - - - - -
18/08:00am 18.4 ENE 6 8 1013.4 - 0.0 - - - - - - -
18/07:30am 17.5 NE 8 11 1013.5 - 0.0 - - - - - - -
18/07:00am 16.9 NE 7 13 1013.3 - 0.0 - - - - - - -
18/06:30am 16.0 NNW 5 9 1013.1 - 0.0 - - - - - - -
18/06:22am 15.6 NE 9 17 1013.1 - 0.0 - - - - - - -
18/06:00am 15.0 NE 21 25 1012.3 - 0.0 - - - - - - -
18/05:30am 14.8 NE 22 26 1011.9 - 0.0 - - - - - - -
18/05:00am 14.9 ENE 23 26 1011.8 - 0.0 - - - - - - -
18/04:30am 15.1 ENE 23 26 1011.8 - 0.0 - - - - - - -
18/04:00am 15.5 ENE 23 27 1011.8 - 0.0 - - - - - - -
18/03:30am 15.8 ENE 23 26 1012.0 - 0.0 - - - - - - -
18/03:00am 16.1 ENE 22 27 1012.3 - 0.0 - - - - - - -
18/02:30am 16.4 ENE 23 28 1012.7 - 0.0 - - - - - - -
18/02:00am 16.6 E 23 28 1013.1 - 0.0 - - - - - - -
18/01:30am 16.6 E 24 29 1013.5 - 0.0 - - - - - - -
18/01:00am 16.6 E 25 28 1014.1 - 0.0 - - - - - - -
18/12:30am 16.8 E 25 30 1014.6 - 0.0 - - - - - - -
18/12:00am 17.1 ESE 26 31 1015.0 - 0.0 - - - - - - -
 
Date/Time
WST
Temp
°C
Wind Pressure Rain since
9am
mm
Weather Cloud Vis
km
Sea
Height
m
Swell
Dir  Spd
kts
Gust
kts
hPa Trend Height
m
Period
s
Dir
17/11:30pm 17.5 ESE 27 32 1015.3 - 0.0 - - - - - - -
17/11:00pm 17.5 ESE 25 31 1015.8 - 0.0 - - - - - - -
17/10:30pm 17.8 ESE 26 30 1016.2 - 0.0 - - - - - - -
17/10:00pm 17.6 ESE 25 32 1016.5 - 0.0 - - - - - - -
17/09:30pm 17.9 ESE 23 29 1016.6 - 0.0 - - - - - - -
17/09:00pm 17.6 SE 24 31 1016.7 - 0.0 - - - - - - -
17/08:30pm 17.7 SE 23 29 1016.7 - 0.0 - - - - - - -
17/08:00pm 17.6 SE 23 28 1016.5 - 0.0 - - - - - - -
17/07:30pm 17.6 SE 22 29 1016.4 - 0.0 - - - - - - -
17/07:00pm 17.8 SE 22 27 1016.3 - 0.0 - - - - - - -
17/06:30pm 18.2 SE 22 29 1016.1 - 0.0 - - - - - - -
17/06:00pm 18.7 SE 22 28 1016.1 - 0.0 - - - - - - -
17/05:30pm 18.9 SE 22 29 1016.1 - 0.0 - - - - - - -
17/05:00pm 19.3 SE 22 28 1016.1 - 0.0 - - - - - - -
17/04:30pm 19.7 SE 22 27 1016.2 - 0.0 - - - - - - -
17/04:00pm 20.0 SSE 21 25 1016.4 - 0.0 - - - - - - -
17/03:30pm 20.8 SE 19 24 1016.6 - 0.0 - - - - - - -
17/03:00pm 21.2 SE 19 24 1016.8 - 0.0 - - - - - - -
17/02:30pm 21.3 SE 19 23 1016.9 - 0.0 - - - - - - -
17/02:00pm 21.0 SSE 17 22 1017.0 - 0.0 - - - - - - -
17/01:30pm 21.4 SE 17 22 1017.1 - 0.0 - - - - - - -
17/01:00pm 21.0 SE 15 19 1017.3 - 0.0 - - - - - - -
17/12:30pm 20.9 SE 15 19 1017.4 - 0.0 - - - - - - -
17/12:00pm 21.4 SE 15 19 1017.5 - 0.0 - - - - - - -
17/11:30am 20.4 SE 14 19 1017.7 - 0.0 - - - - - - -
17/11:00am 19.9 SE 13 18 1017.8 - 0.0 - - - - - - -
17/10:30am 19.9 SE 15 18 1017.9 - 0.0 - - - - - - -
17/10:00am 19.5 SE 15 19 1018.0 - 0.0 - - - - - - -
17/09:30am 18.9 SE 14 18 1018.0 - 0.0 - - - - - - -
17/09:00am 18.7 SE 14 18 1018.0 - 0.0 - - - - - - -
17/08:30am 18.0 SE 15 19 1018.1 - 0.0 - - - - - - -
17/08:00am 17.6 SE 13 16 1018.1 - 0.0 - - - - - - -
17/07:30am 18.4 SE 12 15 1018.0 - 0.0 - - - - - - -
17/07:00am 17.7 SE 12 16 1017.8 - 0.0 - - - - - - -
17/06:30am 17.1 SE 13 18 1017.5 - 0.0 - - - - - - -
17/06:00am 17.1 SE 13 16 1017.4 - 0.0 - - - - - - -
17/05:30am 16.6 SSE 14 17 1017.2 - 0.0 - - - - - - -
17/05:00am 16.8 SSE 16 21 1016.9 - 0.0 - - - - - - -
17/04:30am 16.8 SSE 16 20 1016.7 - 0.0 - - - - - - -
17/04:00am 16.6 SSE 14 18 1016.2 - 0.0 - - - - - - -
17/03:30am 16.5 SE 13 17 1016.0 - 0.0 - - - - - - -
17/03:00am 16.4 SSE 15 18 1015.9 - 0.0 - - - - - - -
17/02:30am 16.5 SSE 14 18 1015.7 - 0.0 - - - - - - -
17/02:00am 16.5 SSE 12 16 1015.8 - 0.0 - - - - - - -
17/01:30am 16.7 S 14 18 1015.8 - 0.0 - - - - - - -
17/01:00am 16.9 SSE 16 20 1015.7 - 0.0 - - - - - - -
17/12:30am 16.9 SSE 15 21 1015.7 - 0.0 - - - - - - -
17/12:00am 17.1 SSE 16 19 1015.7 - 0.0 - - - - - - -
 
Date/Time
WST
Temp
°C
Wind Pressure Rain since
9am
mm
Weather Cloud Vis
km
Sea
Height
m
Swell
Dir  Spd
kts
Gust
kts
hPa Trend Height
m
Period
s
Dir
16/11:30pm 16.7 SSE 15 19 1015.7 - 0.0 - - - - - - -
16/11:00pm 16.8 SSE 15 21 1015.8 - 0.0 - - - - - - -
16/10:30pm 16.9 SSE 16 20 1015.8 - 0.0 - - - - - - -
16/10:00pm 16.9 SSE 15 20 1015.8 - 0.0 - - - - - - -
16/09:30pm 16.9 SSE 16 20 1015.8 - 0.0 - - - - - - -

Other Formats:

Comma delimited format used in spreadsheet applications
http://www.bom.gov.au/fwo/IDW60701/IDW60701.94601.axf

JavaScript Object Notation format (JSON) in row-major order
http://www.bom.gov.au/fwo/IDW60701/IDW60701.94601.json